sensor_id;sensor_type;location;lat;lon;timestamp;P1;durP1;ratioP1;P2;durP2;ratioP2
60006;SDS011;45863;50.336;3.536;2023-02-04T00:00:09;26.15;;;11.88;;
60006;SDS011;45863;50.336;3.536;2023-02-04T00:02:35;26.17;;;12.05;;
60006;SDS011;45863;50.336;3.536;2023-02-04T00:05:02;30.20;;;13.00;;
60006;SDS011;45863;50.336;3.536;2023-02-04T00:07:27;39.20;;;15.10;;
60006;SDS011;45863;50.336;3.536;2023-02-04T00:09:52;34.85;;;13.40;;
60006;SDS011;45863;50.336;3.536;2023-02-04T00:12:18;36.33;;;14.68;;
60006;SDS011;45863;50.336;3.536;2023-02-04T00:14:43;31.58;;;12.68;;
60006;SDS011;45863;50.336;3.536;2023-02-04T00:17:08;36.50;;;12.90;;
60006;SDS011;45863;50.336;3.536;2023-02-04T00:19:37;36.25;;;14.20;;
60006;SDS011;45863;50.336;3.536;2023-02-04T00:22:03;34.95;;;12.50;;
60006;SDS011;45863;50.336;3.536;2023-02-04T00:24:28;27.33;;;12.73;;
60006;SDS011;45863;50.336;3.536;2023-02-04T00:26:55;30.00;;;11.85;;
60006;SDS011;45863;50.336;3.536;2023-02-04T00:29:21;27.45;;;11.25;;
60006;SDS011;45863;50.336;3.536;2023-02-04T00:31:46;30.38;;;11.68;;
60006;SDS011;45863;50.336;3.536;2023-02-04T00:34:11;34.50;;;12.07;;
60006;SDS011;45863;50.336;3.536;2023-02-04T00:36:36;28.05;;;10.73;;
60006;SDS011;45863;50.336;3.536;2023-02-04T00:39:02;26.17;;;10.88;;
60006;SDS011;45863;50.336;3.536;2023-02-04T00:41:27;24.60;;;10.50;;
60006;SDS011;45863;50.336;3.536;2023-02-04T00:43:52;31.65;;;12.20;;
60006;SDS011;45863;50.336;3.536;2023-02-04T00:46:18;35.80;;;15.40;;
60006;SDS011;45863;50.336;3.536;2023-02-04T00:48:43;38.58;;;14.77;;
60006;SDS011;45863;50.336;3.536;2023-02-04T00:51:08;36.90;;;15.07;;
60006;SDS011;45863;50.336;3.536;2023-02-04T00:53:33;36.97;;;13.65;;
60006;SDS011;45863;50.336;3.536;2023-02-04T00:55:58;33.22;;;15.48;;
60006;SDS011;45863;50.336;3.536;2023-02-04T00:58:24;45.97;;;16.20;;
60006;SDS011;45863;50.336;3.536;2023-02-04T01:00:49;38.72;;;16.90;;
60006;SDS011;45863;50.336;3.536;2023-02-04T01:03:14;44.72;;;18.88;;
60006;SDS011;45863;50.336;3.536;2023-02-04T01:05:39;48.10;;;17.50;;
60006;SDS011;45863;50.336;3.536;2023-02-04T01:08:05;38.55;;;15.50;;
60006;SDS011;45863;50.336;3.536;2023-02-04T01:10:30;32.03;;;14.45;;
60006;SDS011;45863;50.336;3.536;2023-02-04T01:12:55;32.33;;;14.05;;
60006;SDS011;45863;50.336;3.536;2023-02-04T01:15:20;37.35;;;12.73;;
60006;SDS011;45863;50.336;3.536;2023-02-04T01:17:47;33.28;;;12.65;;
60006;SDS011;45863;50.336;3.536;2023-02-04T01:20:12;25.85;;;11.18;;
60006;SDS011;45863;50.336;3.536;2023-02-04T01:22:37;28.98;;;11.65;;
60006;SDS011;45863;50.336;3.536;2023-02-04T01:25:02;27.85;;;10.68;;
60006;SDS011;45863;50.336;3.536;2023-02-04T01:27:28;26.35;;;11.57;;
60006;SDS011;45863;50.336;3.536;2023-02-04T01:29:53;28.02;;;10.35;;
60006;SDS011;45863;50.336;3.536;2023-02-04T01:32:18;25.30;;;10.85;;
60006;SDS011;45863;50.336;3.536;2023-02-04T01:34:43;29.63;;;11.25;;
60006;SDS011;45863;50.336;3.536;2023-02-04T01:37:09;24.15;;;12.07;;
60006;SDS011;45863;50.336;3.536;2023-02-04T01:39:34;26.48;;;10.73;;
60006;SDS011;45863;50.336;3.536;2023-02-04T01:42:00;22.52;;;10.98;;
60006;SDS011;45863;50.336;3.536;2023-02-04T01:44:26;22.40;;;10.60;;
60006;SDS011;45863;50.336;3.536;2023-02-04T01:46:52;28.15;;;11.50;;
60006;SDS011;45863;50.336;3.536;2023-02-04T01:49:17;24.58;;;10.18;;
60006;SDS011;45863;50.336;3.536;2023-02-04T01:51:42;25.02;;;10.25;;
60006;SDS011;45863;50.336;3.536;2023-02-04T01:54:09;22.40;;;10.88;;
60006;SDS011;45863;50.336;3.536;2023-02-04T01:56:35;23.00;;;9.75;;
60006;SDS011;45863;50.336;3.536;2023-02-04T01:59:00;25.08;;;10.88;;
60006;SDS011;45863;50.336;3.536;2023-02-04T02:01:33;21.65;;;10.68;;
60006;SDS011;45863;50.336;3.536;2023-02-04T02:03:59;26.65;;;10.77;;
60006;SDS011;45863;50.336;3.536;2023-02-04T02:06:25;22.40;;;9.82;;
60006;SDS011;45863;50.336;3.536;2023-02-04T02:08:50;28.95;;;10.70;;
60006;SDS011;45863;50.336;3.536;2023-02-04T02:11:15;22.48;;;10.88;;
60006;SDS011;45863;50.336;3.536;2023-02-04T02:13:41;21.95;;;10.60;;
60006;SDS011;45863;50.336;3.536;2023-02-04T02:16:06;23.33;;;10.27;;
60006;SDS011;45863;50.336;3.536;2023-02-04T02:18:31;20.60;;;10.02;;
60006;SDS011;45863;50.336;3.536;2023-02-04T02:20:57;20.65;;;10.43;;
60006;SDS011;45863;50.336;3.536;2023-02-04T02:26:09;23.35;;;10.98;;
60006;SDS011;45863;50.336;3.536;2023-02-04T02:28:34;21.50;;;11.52;;
60006;SDS011;45863;50.336;3.536;2023-02-04T02:30:59;21.85;;;11.05;;
60006;SDS011;45863;50.336;3.536;2023-02-04T02:33:24;24.02;;;10.38;;
60006;SDS011;45863;50.336;3.536;2023-02-04T02:35:50;22.05;;;10.35;;
60006;SDS011;45863;50.336;3.536;2023-02-04T02:38:16;25.42;;;10.85;;
60006;SDS011;45863;50.336;3.536;2023-02-04T02:40:42;23.67;;;10.90;;
60006;SDS011;45863;50.336;3.536;2023-02-04T02:43:08;22.98;;;10.65;;
60006;SDS011;45863;50.336;3.536;2023-02-04T02:45:36;25.80;;;11.75;;
60006;SDS011;45863;50.336;3.536;2023-02-04T02:48:01;24.63;;;12.68;;
60006;SDS011;45863;50.336;3.536;2023-02-04T02:50:28;22.40;;;10.73;;
60006;SDS011;45863;50.336;3.536;2023-02-04T02:52:54;21.63;;;11.27;;
60006;SDS011;45863;50.336;3.536;2023-02-04T02:55:20;26.63;;;11.63;;
60006;SDS011;45863;50.336;3.536;2023-02-04T02:57:46;36.92;;;11.93;;
60006;SDS011;45863;50.336;3.536;2023-02-04T03:00:22;21.77;;;10.80;;
60006;SDS011;45863;50.336;3.536;2023-02-04T03:05:46;21.83;;;11.63;;
60006;SDS011;45863;50.336;3.536;2023-02-04T03:08:14;22.17;;;11.00;;
60006;SDS011;45863;50.336;3.536;2023-02-04T03:10:39;24.10;;;12.52;;
60006;SDS011;45863;50.336;3.536;2023-02-04T03:13:05;26.23;;;12.82;;
60006;SDS011;45863;50.336;3.536;2023-02-04T03:15:30;28.42;;;13.02;;
60006;SDS011;45863;50.336;3.536;2023-02-04T03:17:55;25.23;;;13.00;;
60006;SDS011;45863;50.336;3.536;2023-02-04T03:20:22;28.58;;;15.43;;
60006;SDS011;45863;50.336;3.536;2023-02-04T03:22:49;27.55;;;14.95;;
60006;SDS011;45863;50.336;3.536;2023-02-04T03:25:14;27.35;;;14.13;;
60006;SDS011;45863;50.336;3.536;2023-02-04T03:27:39;32.05;;;15.70;;
60006;SDS011;45863;50.336;3.536;2023-02-04T03:30:05;27.55;;;15.50;;
60006;SDS011;45863;50.336;3.536;2023-02-04T03:32:30;27.80;;;16.85;;
60006;SDS011;45863;50.336;3.536;2023-02-04T03:34:55;29.55;;;16.60;;
60006;SDS011;45863;50.336;3.536;2023-02-04T03:37:21;34.00;;;16.67;;
60006;SDS011;45863;50.336;3.536;2023-02-04T03:39:46;36.15;;;19.02;;
60006;SDS011;45863;50.336;3.536;2023-02-04T03:42:11;34.95;;;18.00;;
60006;SDS011;45863;50.336;3.536;2023-02-04T03:44:36;38.17;;;19.58;;
60006;SDS011;45863;50.336;3.536;2023-02-04T03:47:01;32.53;;;18.45;;
60006;SDS011;45863;50.336;3.536;2023-02-04T03:49:27;32.13;;;19.30;;
60006;SDS011;45863;50.336;3.536;2023-02-04T03:51:52;33.80;;;19.05;;
60006;SDS011;45863;50.336;3.536;2023-02-04T03:54:17;26.40;;;16.80;;
60006;SDS011;45863;50.336;3.536;2023-02-04T03:56:42;36.17;;;19.33;;
60006;SDS011;45863;50.336;3.536;2023-02-04T03:59:08;37.07;;;20.60;;
60006;SDS011;45863;50.336;3.536;2023-02-04T04:01:33;37.65;;;19.88;;
60006;SDS011;45863;50.336;3.536;2023-02-04T04:03:58;33.95;;;20.27;;
60006;SDS011;45863;50.336;3.536;2023-02-04T04:06:23;36.13;;;19.45;;
60006;SDS011;45863;50.336;3.536;2023-02-04T04:08:49;36.45;;;20.77;;
60006;SDS011;45863;50.336;3.536;2023-02-04T04:11:14;36.23;;;22.13;;
60006;SDS011;45863;50.336;3.536;2023-02-04T04:13:39;38.78;;;22.50;;
60006;SDS011;45863;50.336;3.536;2023-02-04T04:16:04;37.97;;;21.55;;
60006;SDS011;45863;50.336;3.536;2023-02-04T04:18:30;37.30;;;22.92;;
60006;SDS011;45863;50.336;3.536;2023-02-04T04:20:56;31.50;;;20.95;;
60006;SDS011;45863;50.336;3.536;2023-02-04T04:23:22;38.28;;;21.52;;
60006;SDS011;45863;50.336;3.536;2023-02-04T04:25:47;34.95;;;22.70;;
60006;SDS011;45863;50.336;3.536;2023-02-04T04:28:12;38.92;;;24.00;;
60006;SDS011;45863;50.336;3.536;2023-02-04T04:30:37;28.48;;;17.90;;
60006;SDS011;45863;50.336;3.536;2023-02-04T04:33:03;37.47;;;23.35;;
60006;SDS011;45863;50.336;3.536;2023-02-04T04:35:28;32.88;;;21.73;;
60006;SDS011;45863;50.336;3.536;2023-02-04T04:37:53;35.50;;;22.52;;
60006;SDS011;45863;50.336;3.536;2023-02-04T04:40:18;30.15;;;20.00;;
60006;SDS011;45863;50.336;3.536;2023-02-04T04:42:44;33.90;;;21.05;;
60006;SDS011;45863;50.336;3.536;2023-02-04T04:45:09;36.80;;;23.00;;
60006;SDS011;45863;50.336;3.536;2023-02-04T04:47:34;33.15;;;20.67;;
60006;SDS011;45863;50.336;3.536;2023-02-04T04:49:59;34.08;;;21.70;;
60006;SDS011;45863;50.336;3.536;2023-02-04T04:52:25;33.83;;;20.10;;
60006;SDS011;45863;50.336;3.536;2023-02-04T04:54:50;30.10;;;19.53;;
60006;SDS011;45863;50.336;3.536;2023-02-04T04:57:15;31.65;;;20.30;;
60006;SDS011;45863;50.336;3.536;2023-02-04T04:59:40;32.33;;;19.77;;
60006;SDS011;45863;50.336;3.536;2023-02-04T05:02:05;37.67;;;22.75;;
60006;SDS011;45863;50.336;3.536;2023-02-04T05:04:31;35.08;;;20.08;;
60006;SDS011;45863;50.336;3.536;2023-02-04T05:06:56;36.80;;;22.17;;
60006;SDS011;45863;50.336;3.536;2023-02-04T05:09:21;39.80;;;22.75;;
60006;SDS011;45863;50.336;3.536;2023-02-04T05:11:46;43.38;;;24.17;;
60006;SDS011;45863;50.336;3.536;2023-02-04T05:14:11;36.40;;;21.92;;
60006;SDS011;45863;50.336;3.536;2023-02-04T05:16:37;38.22;;;22.38;;
60006;SDS011;45863;50.336;3.536;2023-02-04T05:19:02;38.25;;;21.40;;
60006;SDS011;45863;50.336;3.536;2023-02-04T05:21:27;38.53;;;20.45;;
60006;SDS011;45863;50.336;3.536;2023-02-04T05:23:52;35.45;;;21.15;;
60006;SDS011;45863;50.336;3.536;2023-02-04T05:26:18;40.97;;;24.03;;
60006;SDS011;45863;50.336;3.536;2023-02-04T05:28:43;39.03;;;21.10;;
60006;SDS011;45863;50.336;3.536;2023-02-04T05:31:08;40.23;;;21.07;;
60006;SDS011;45863;50.336;3.536;2023-02-04T05:33:33;45.17;;;23.30;;
60006;SDS011;45863;50.336;3.536;2023-02-04T05:35:58;42.70;;;23.13;;
60006;SDS011;45863;50.336;3.536;2023-02-04T05:38:24;41.45;;;22.52;;
60006;SDS011;45863;50.336;3.536;2023-02-04T05:40:49;42.17;;;23.80;;
60006;SDS011;45863;50.336;3.536;2023-02-04T05:43:14;38.43;;;21.80;;
60006;SDS011;45863;50.336;3.536;2023-02-04T05:45:39;41.13;;;22.50;;
60006;SDS011;45863;50.336;3.536;2023-02-04T05:48:05;46.20;;;22.10;;
60006;SDS011;45863;50.336;3.536;2023-02-04T05:50:30;35.45;;;21.15;;
60006;SDS011;45863;50.336;3.536;2023-02-04T05:52:55;75.40;;;40.80;;
60006;SDS011;45863;50.336;3.536;2023-02-04T05:55:20;57.20;;;30.42;;
60006;SDS011;45863;50.336;3.536;2023-02-04T05:57:45;99.28;;;55.20;;
60006;SDS011;45863;50.336;3.536;2023-02-04T06:00:11;159.52;;;90.93;;
60006;SDS011;45863;50.336;3.536;2023-02-04T06:02:36;92.00;;;50.67;;
60006;SDS011;45863;50.336;3.536;2023-02-04T06:05:02;164.20;;;88.22;;
60006;SDS011;45863;50.336;3.536;2023-02-04T06:07:27;129.60;;;65.60;;
60006;SDS011;45863;50.336;3.536;2023-02-04T06:09:52;144.55;;;75.25;;
60006;SDS011;45863;50.336;3.536;2023-02-04T06:12:17;69.22;;;37.70;;
60006;SDS011;45863;50.336;3.536;2023-02-04T06:14:43;50.15;;;28.02;;
60006;SDS011;45863;50.336;3.536;2023-02-04T06:17:08;47.03;;;29.67;;
60006;SDS011;45863;50.336;3.536;2023-02-04T06:19:33;40.42;;;24.27;;
60006;SDS011;45863;50.336;3.536;2023-02-04T06:21:58;37.45;;;21.90;;
60006;SDS011;45863;50.336;3.536;2023-02-04T06:24:24;40.60;;;21.98;;
60006;SDS011;45863;50.336;3.536;2023-02-04T06:26:49;38.47;;;20.40;;
60006;SDS011;45863;50.336;3.536;2023-02-04T06:29:14;40.13;;;21.30;;
60006;SDS011;45863;50.336;3.536;2023-02-04T06:31:39;39.20;;;22.23;;
60006;SDS011;45863;50.336;3.536;2023-02-04T06:34:05;39.43;;;22.57;;
60006;SDS011;45863;50.336;3.536;2023-02-04T06:36:30;43.25;;;23.63;;
60006;SDS011;45863;50.336;3.536;2023-02-04T06:38:55;43.22;;;24.23;;
60006;SDS011;45863;50.336;3.536;2023-02-04T06:41:21;44.65;;;22.83;;
60006;SDS011;45863;50.336;3.536;2023-02-04T06:43:46;42.67;;;24.83;;
60006;SDS011;45863;50.336;3.536;2023-02-04T06:46:12;47.22;;;27.20;;
60006;SDS011;45863;50.336;3.536;2023-02-04T06:48:37;51.97;;;25.58;;
60006;SDS011;45863;50.336;3.536;2023-02-04T06:51:02;40.20;;;23.35;;
60006;SDS011;45863;50.336;3.536;2023-02-04T06:53:27;46.30;;;26.05;;
60006;SDS011;45863;50.336;3.536;2023-02-04T06:55:53;57.67;;;31.30;;
60006;SDS011;45863;50.336;3.536;2023-02-04T06:58:18;46.87;;;27.10;;
60006;SDS011;45863;50.336;3.536;2023-02-04T07:00:43;56.05;;;28.20;;
60006;SDS011;45863;50.336;3.536;2023-02-04T07:03:08;50.15;;;29.48;;
60006;SDS011;45863;50.336;3.536;2023-02-04T07:05:34;53.13;;;28.23;;
60006;SDS011;45863;50.336;3.536;2023-02-04T07:07:59;49.88;;;27.35;;
60006;SDS011;45863;50.336;3.536;2023-02-04T07:10:24;47.42;;;27.60;;
60006;SDS011;45863;50.336;3.536;2023-02-04T07:12:49;55.38;;;28.42;;
60006;SDS011;45863;50.336;3.536;2023-02-04T07:15:15;48.33;;;28.30;;
60006;SDS011;45863;50.336;3.536;2023-02-04T07:17:40;48.72;;;26.95;;
60006;SDS011;45863;50.336;3.536;2023-02-04T07:20:06;50.08;;;27.75;;
60006;SDS011;45863;50.336;3.536;2023-02-04T07:22:31;45.80;;;25.25;;
60006;SDS011;45863;50.336;3.536;2023-02-04T07:24:56;52.10;;;29.98;;
60006;SDS011;45863;50.336;3.536;2023-02-04T07:27:22;47.22;;;26.67;;
60006;SDS011;45863;50.336;3.536;2023-02-04T07:29:47;49.55;;;27.90;;
60006;SDS011;45863;50.336;3.536;2023-02-04T07:32:12;52.20;;;28.30;;
60006;SDS011;45863;50.336;3.536;2023-02-04T07:34:38;46.53;;;26.80;;
60006;SDS011;45863;50.336;3.536;2023-02-04T07:37:03;47.63;;;27.20;;
60006;SDS011;45863;50.336;3.536;2023-02-04T07:39:28;54.80;;;30.27;;
60006;SDS011;45863;50.336;3.536;2023-02-04T07:41:54;54.65;;;31.08;;
60006;SDS011;45863;50.336;3.536;2023-02-04T07:44:19;50.85;;;28.50;;
60006;SDS011;45863;50.336;3.536;2023-02-04T07:46:44;51.45;;;26.92;;
60006;SDS011;45863;50.336;3.536;2023-02-04T07:49:09;51.33;;;28.13;;
60006;SDS011;45863;50.336;3.536;2023-02-04T07:51:35;45.50;;;25.92;;
60006;SDS011;45863;50.336;3.536;2023-02-04T07:54:00;46.45;;;26.90;;
60006;SDS011;45863;50.336;3.536;2023-02-04T07:56:25;42.92;;;25.27;;
60006;SDS011;45863;50.336;3.536;2023-02-04T07:58:51;39.85;;;24.63;;
60006;SDS011;45863;50.336;3.536;2023-02-04T08:01:16;45.80;;;26.25;;
60006;SDS011;45863;50.336;3.536;2023-02-04T08:03:42;50.05;;;26.40;;
60006;SDS011;45863;50.336;3.536;2023-02-04T08:06:07;53.55;;;25.48;;
60006;SDS011;45863;50.336;3.536;2023-02-04T08:08:33;45.03;;;27.02;;
60006;SDS011;45863;50.336;3.536;2023-02-04T08:10:58;41.73;;;24.60;;
60006;SDS011;45863;50.336;3.536;2023-02-04T08:13:23;41.83;;;25.37;;
60006;SDS011;45863;50.336;3.536;2023-02-04T08:15:49;44.00;;;24.60;;
60006;SDS011;45863;50.336;3.536;2023-02-04T08:18:14;39.05;;;24.48;;
60006;SDS011;45863;50.336;3.536;2023-02-04T08:20:39;39.25;;;21.27;;
60006;SDS011;45863;50.336;3.536;2023-02-04T08:23:05;43.80;;;23.97;;
60006;SDS011;45863;50.336;3.536;2023-02-04T08:25:30;41.35;;;23.77;;
60006;SDS011;45863;50.336;3.536;2023-02-04T08:27:55;39.63;;;24.02;;
60006;SDS011;45863;50.336;3.536;2023-02-04T08:30:21;42.65;;;24.00;;
60006;SDS011;45863;50.336;3.536;2023-02-04T08:32:46;43.92;;;24.58;;
60006;SDS011;45863;50.336;3.536;2023-02-04T08:35:11;35.03;;;21.70;;
60006;SDS011;45863;50.336;3.536;2023-02-04T08:37:37;33.50;;;19.95;;
60006;SDS011;45863;50.336;3.536;2023-02-04T08:40:03;30.45;;;20.25;;
60006;SDS011;45863;50.336;3.536;2023-02-04T08:42:28;30.65;;;19.75;;
60006;SDS011;45863;50.336;3.536;2023-02-04T08:44:54;33.17;;;20.15;;
60006;SDS011;45863;50.336;3.536;2023-02-04T08:47:19;27.40;;;17.00;;
60006;SDS011;45863;50.336;3.536;2023-02-04T08:49:44;30.92;;;18.73;;
60006;SDS011;45863;50.336;3.536;2023-02-04T08:52:10;32.85;;;19.58;;
60006;SDS011;45863;50.336;3.536;2023-02-04T08:54:35;28.02;;;16.60;;
60006;SDS011;45863;50.336;3.536;2023-02-04T08:57:00;27.55;;;18.13;;
60006;SDS011;45863;50.336;3.536;2023-02-04T08:59:26;26.23;;;16.38;;
60006;SDS011;45863;50.336;3.536;2023-02-04T09:01:51;26.17;;;15.68;;
60006;SDS011;45863;50.336;3.536;2023-02-04T09:04:20;26.27;;;16.45;;
60006;SDS011;45863;50.336;3.536;2023-02-04T09:06:46;23.77;;;15.30;;
60006;SDS011;45863;50.336;3.536;2023-02-04T09:09:12;25.35;;;17.48;;
60006;SDS011;45863;50.336;3.536;2023-02-04T09:11:37;22.55;;;13.50;;
60006;SDS011;45863;50.336;3.536;2023-02-04T09:14:03;26.42;;;14.68;;
60006;SDS011;45863;50.336;3.536;2023-02-04T09:16:28;24.77;;;14.82;;
60006;SDS011;45863;50.336;3.536;2023-02-04T09:18:53;22.42;;;13.30;;
60006;SDS011;45863;50.336;3.536;2023-02-04T09:21:18;24.63;;;13.85;;
60006;SDS011;45863;50.336;3.536;2023-02-04T09:23:44;25.45;;;12.77;;
60006;SDS011;45863;50.336;3.536;2023-02-04T09:26:10;21.58;;;13.57;;
60006;SDS011;45863;50.336;3.536;2023-02-04T09:28:36;22.48;;;12.85;;
60006;SDS011;45863;50.336;3.536;2023-02-04T09:31:01;18.23;;;11.98;;
60006;SDS011;45863;50.336;3.536;2023-02-04T09:33:26;18.55;;;12.00;;
60006;SDS011;45863;50.336;3.536;2023-02-04T09:35:51;19.00;;;11.80;;
60006;SDS011;45863;50.336;3.536;2023-02-04T09:38:17;21.30;;;11.57;;
60006;SDS011;45863;50.336;3.536;2023-02-04T09:40:43;19.35;;;11.32;;
60006;SDS011;45863;50.336;3.536;2023-02-04T09:43:11;19.42;;;11.13;;
60006;SDS011;45863;50.336;3.536;2023-02-04T09:45:37;21.75;;;11.98;;
60006;SDS011;45863;50.336;3.536;2023-02-04T09:48:03;18.37;;;11.33;;
60006;SDS011;45863;50.336;3.536;2023-02-04T09:50:29;19.63;;;11.95;;
60006;SDS011;45863;50.336;3.536;2023-02-04T09:52:59;24.10;;;12.27;;
60006;SDS011;45863;50.336;3.536;2023-02-04T09:55:27;26.13;;;11.80;;
60006;SDS011;45863;50.336;3.536;2023-02-04T09:57:53;19.35;;;12.18;;
60006;SDS011;45863;50.336;3.536;2023-02-04T10:00:19;19.70;;;11.73;;
60006;SDS011;45863;50.336;3.536;2023-02-04T10:02:45;20.02;;;12.25;;
60006;SDS011;45863;50.336;3.536;2023-02-04T10:05:17;19.88;;;10.90;;
60006;SDS011;45863;50.336;3.536;2023-02-04T10:07:43;16.02;;;10.73;;
60006;SDS011;45863;50.336;3.536;2023-02-04T10:10:13;20.17;;;11.77;;
60006;SDS011;45863;50.336;3.536;2023-02-04T10:12:39;18.60;;;11.68;;
60006;SDS011;45863;50.336;3.536;2023-02-04T10:15:05;18.25;;;11.35;;
60006;SDS011;45863;50.336;3.536;2023-02-04T10:17:34;17.73;;;9.52;;
60006;SDS011;45863;50.336;3.536;2023-02-04T10:20:00;17.05;;;10.35;;
60006;SDS011;45863;50.336;3.536;2023-02-04T10:22:25;20.70;;;11.43;;
60006;SDS011;45863;50.336;3.536;2023-02-04T10:24:51;19.70;;;11.20;;
60006;SDS011;45863;50.336;3.536;2023-02-04T10:27:16;17.40;;;9.67;;
60006;SDS011;45863;50.336;3.536;2023-02-04T10:29:41;21.58;;;10.75;;
60006;SDS011;45863;50.336;3.536;2023-02-04T10:32:29;18.98;;;10.05;;
60006;SDS011;45863;50.336;3.536;2023-02-04T10:35:00;16.60;;;9.10;;
60006;SDS011;45863;50.336;3.536;2023-02-04T10:37:26;13.48;;;9.52;;
60006;SDS011;45863;50.336;3.536;2023-02-04T10:39:51;20.80;;;9.65;;
60006;SDS011;45863;50.336;3.536;2023-02-04T10:42:23;19.95;;;9.45;;
60006;SDS011;45863;50.336;3.536;2023-02-04T10:44:49;21.08;;;9.13;;
60006;SDS011;45863;50.336;3.536;2023-02-04T10:47:18;17.58;;;9.52;;
60006;SDS011;45863;50.336;3.536;2023-02-04T10:49:56;14.73;;;8.70;;
60006;SDS011;45863;50.336;3.536;2023-02-04T10:52:24;13.43;;;7.68;;
60006;SDS011;45863;50.336;3.536;2023-02-04T10:54:50;19.27;;;8.85;;
60006;SDS011;45863;50.336;3.536;2023-02-04T10:57:23;19.20;;;8.80;;
60006;SDS011;45863;50.336;3.536;2023-02-04T10:59:50;12.63;;;7.68;;
60006;SDS011;45863;50.336;3.536;2023-02-04T11:07:37;18.05;;;9.48;;
60006;SDS011;45863;50.336;3.536;2023-02-04T11:10:02;15.90;;;8.93;;
60006;SDS011;45863;50.336;3.536;2023-02-04T11:15:02;20.27;;;9.50;;
60006;SDS011;45863;50.336;3.536;2023-02-04T11:17:29;16.67;;;8.98;;
60006;SDS011;45863;50.336;3.536;2023-02-04T11:19:55;19.20;;;9.85;;
60006;SDS011;45863;50.336;3.536;2023-02-04T11:22:22;16.20;;;9.93;;
60006;SDS011;45863;50.336;3.536;2023-02-04T11:24:48;15.77;;;8.88;;
60006;SDS011;45863;50.336;3.536;2023-02-04T11:27:18;16.30;;;9.65;;
60006;SDS011;45863;50.336;3.536;2023-02-04T11:29:44;15.93;;;9.70;;
60006;SDS011;45863;50.336;3.536;2023-02-04T11:32:30;16.02;;;9.77;;
60006;SDS011;45863;50.336;3.536;2023-02-04T11:37:37;19.87;;;10.17;;
60006;SDS011;45863;50.336;3.536;2023-02-04T11:40:22;23.52;;;10.60;;
60006;SDS011;45863;50.336;3.536;2023-02-04T11:42:48;16.77;;;10.13;;
60006;SDS011;45863;50.336;3.536;2023-02-04T11:45:19;21.30;;;11.10;;
60006;SDS011;45863;50.336;3.536;2023-02-04T11:47:45;18.33;;;10.73;;
60006;SDS011;45863;50.336;3.536;2023-02-04T11:50:32;17.73;;;9.50;;
60006;SDS011;45863;50.336;3.536;2023-02-04T11:52:57;23.23;;;9.43;;
60006;SDS011;45863;50.336;3.536;2023-02-04T11:55:22;17.85;;;9.23;;
60006;SDS011;45863;50.336;3.536;2023-02-04T11:57:50;15.18;;;8.70;;
60006;SDS011;45863;50.336;3.536;2023-02-04T12:00:17;14.27;;;9.02;;
60006;SDS011;45863;50.336;3.536;2023-02-04T12:02:46;15.95;;;9.27;;
60006;SDS011;45863;50.336;3.536;2023-02-04T12:05:13;17.13;;;8.93;;
60006;SDS011;45863;50.336;3.536;2023-02-04T12:07:38;16.75;;;9.43;;
60006;SDS011;45863;50.336;3.536;2023-02-04T12:12:58;19.55;;;9.93;;
60006;SDS011;45863;50.336;3.536;2023-02-04T12:18:04;17.75;;;11.38;;
60006;SDS011;45863;50.336;3.536;2023-02-04T12:20:31;17.00;;;11.27;;
60006;SDS011;45863;50.336;3.536;2023-02-04T12:22:56;21.35;;;11.40;;
60006;SDS011;45863;50.336;3.536;2023-02-04T12:25:22;19.48;;;10.13;;
60006;SDS011;45863;50.336;3.536;2023-02-04T12:27:47;19.73;;;10.70;;
60006;SDS011;45863;50.336;3.536;2023-02-04T12:30:12;15.73;;;9.95;;
60006;SDS011;45863;50.336;3.536;2023-02-04T12:32:38;17.08;;;8.75;;
60006;SDS011;45863;50.336;3.536;2023-02-04T12:35:03;17.38;;;9.77;;
60006;SDS011;45863;50.336;3.536;2023-02-04T12:37:28;17.33;;;9.65;;
60006;SDS011;45863;50.336;3.536;2023-02-04T12:39:54;16.65;;;9.98;;
60006;SDS011;45863;50.336;3.536;2023-02-04T12:42:19;16.60;;;10.07;;
60006;SDS011;45863;50.336;3.536;2023-02-04T12:44:44;17.93;;;10.23;;
60006;SDS011;45863;50.336;3.536;2023-02-04T12:47:09;23.45;;;11.02;;
60006;SDS011;45863;50.336;3.536;2023-02-04T12:49:34;18.95;;;12.55;;
60006;SDS011;45863;50.336;3.536;2023-02-04T12:52:02;20.40;;;11.23;;
60006;SDS011;45863;50.336;3.536;2023-02-04T12:54:27;16.90;;;10.40;;
60006;SDS011;45863;50.336;3.536;2023-02-04T12:56:52;15.80;;;10.80;;
60006;SDS011;45863;50.336;3.536;2023-02-04T12:59:22;23.45;;;11.45;;
60006;SDS011;45863;50.336;3.536;2023-02-04T13:01:47;20.83;;;13.13;;
60006;SDS011;45863;50.336;3.536;2023-02-04T13:04:12;19.17;;;11.87;;
60006;SDS011;45863;50.336;3.536;2023-02-04T13:06:38;18.65;;;11.68;;
60006;SDS011;45863;50.336;3.536;2023-02-04T13:09:05;23.40;;;12.05;;
60006;SDS011;45863;50.336;3.536;2023-02-04T13:11:31;24.30;;;12.77;;
60006;SDS011;45863;50.336;3.536;2023-02-04T13:13:56;19.67;;;13.20;;
60006;SDS011;45863;50.336;3.536;2023-02-04T13:16:21;21.75;;;12.73;;
60006;SDS011;45863;50.336;3.536;2023-02-04T13:18:48;23.60;;;13.43;;
60006;SDS011;45863;50.336;3.536;2023-02-04T13:21:14;21.38;;;12.93;;
60006;SDS011;45863;50.336;3.536;2023-02-04T13:23:39;19.25;;;12.10;;
60006;SDS011;45863;50.336;3.536;2023-02-04T13:26:05;18.35;;;10.38;;
60006;SDS011;45863;50.336;3.536;2023-02-04T13:28:30;16.70;;;10.23;;
60006;SDS011;45863;50.336;3.536;2023-02-04T13:30:55;18.52;;;10.15;;
60006;SDS011;45863;50.336;3.536;2023-02-04T13:33:20;17.15;;;10.10;;
60006;SDS011;45863;50.336;3.536;2023-02-04T13:35:46;21.58;;;10.48;;
60006;SDS011;45863;50.336;3.536;2023-02-04T13:38:11;16.15;;;9.30;;
60006;SDS011;45863;50.336;3.536;2023-02-04T13:40:36;16.90;;;9.57;;
60006;SDS011;45863;50.336;3.536;2023-02-04T13:43:03;24.58;;;10.95;;
60006;SDS011;45863;50.336;3.536;2023-02-04T13:45:28;20.48;;;12.02;;
60006;SDS011;45863;50.336;3.536;2023-02-04T13:47:53;17.55;;;10.88;;
60006;SDS011;45863;50.336;3.536;2023-02-04T13:50:19;16.33;;;11.48;;
60006;SDS011;45863;50.336;3.536;2023-02-04T13:52:44;23.60;;;12.27;;
60006;SDS011;45863;50.336;3.536;2023-02-04T13:55:09;25.33;;;12.82;;
60006;SDS011;45863;50.336;3.536;2023-02-04T13:57:34;20.38;;;11.18;;
60006;SDS011;45863;50.336;3.536;2023-02-04T14:00:01;22.73;;;13.25;;
60006;SDS011;45863;50.336;3.536;2023-02-04T14:02:26;25.83;;;13.35;;
60006;SDS011;45863;50.336;3.536;2023-02-04T14:04:51;22.80;;;13.55;;
60006;SDS011;45863;50.336;3.536;2023-02-04T14:07:17;24.73;;;13.27;;
60006;SDS011;45863;50.336;3.536;2023-02-04T14:09:42;22.37;;;13.63;;
60006;SDS011;45863;50.336;3.536;2023-02-04T14:12:07;23.07;;;13.10;;
60006;SDS011;45863;50.336;3.536;2023-02-04T14:14:32;24.63;;;15.98;;
60006;SDS011;45863;50.336;3.536;2023-02-04T14:16:57;25.42;;;14.80;;
60006;SDS011;45863;50.336;3.536;2023-02-04T14:19:23;25.90;;;14.55;;
60006;SDS011;45863;50.336;3.536;2023-02-04T14:21:51;24.52;;;14.40;;
60006;SDS011;45863;50.336;3.536;2023-02-04T14:24:18;23.25;;;13.77;;
60006;SDS011;45863;50.336;3.536;2023-02-04T14:26:44;27.70;;;14.80;;
60006;SDS011;45863;50.336;3.536;2023-02-04T14:29:09;20.55;;;13.75;;
60006;SDS011;45863;50.336;3.536;2023-02-04T14:31:35;20.95;;;13.32;;
60006;SDS011;45863;50.336;3.536;2023-02-04T14:34:01;26.10;;;13.73;;
60006;SDS011;45863;50.336;3.536;2023-02-04T14:36:26;20.95;;;12.38;;